• Join FlightAware (Why Join?)
  • Login
  • US Flag 
07:38PM EST


 

Airport Tracker/Info


-or-


 

Live Flight TrackerFlight Track Log ✈ EGF4174 ✈ 09-Jun-2013 ✈ KSYR - KORD

Flight Track Log - Related Links

Times and Time Zones

All times are in EDT time to prevent confusion due to time zone crossing. See the EGF4174 flight status page for this flight to view local times or setup timezone preferences in your user account.

Time Position Orientation Groundspeed Altitude Reporting Facility
EDT Latitude Longitude Course Direction KTS MPH feet Rate Location/Type
05:02PM 43.1072 -76.1406 285° West 171 197 1,000  Level Boston Center
05:04PM 43.1403 -76.3150 285° West 233 268 5,200 1,440 Climbing Cleveland Center
05:05PM 43.1747 -76.4036 298° West 254 292 5,900 1,200 Climbing Cleveland Center
05:06PM 43.2069 -76.4900 297° West 260 299 7,700 2,040 Climbing Cleveland Center
05:07PM 43.2269 -76.5883 286° West 260 299 10,000 1,920 Climbing Cleveland Center
05:08PM 43.2431 -76.6928 282° West 266 306 11,600 1,560 Climbing Cleveland Center
05:09PM 43.2614 -76.8056 283° West 284 327 13,200 1,560 Climbing Cleveland Center
05:10PM 43.2797 -76.9186 283° West 298 343 14,800 1,500 Climbing Cleveland Center
05:11PM 43.3000 -77.0344 284° West 309 356 16,300 1,440 Climbing Cleveland Center
05:12PM 43.3117 -77.1481 278° West 309 356 17,700 1,320 Climbing Cleveland Center
05:13PM 43.2942 -77.2658 259° West 309 356 19,000 1,320 Climbing Cleveland Center
05:14PM 43.2767 -77.3839 259° West 309 356 20,400 1,380 Climbing Cleveland Center
05:15PM 43.2611 -77.5014 260° West 314 361 21,800 1,200 Climbing Cleveland Center
05:16PM 43.2456 -77.6219 260° West 314 361 22,800 1,080 Climbing Cleveland Center
05:17PM 43.2242 -77.7625 258° West 326 375 24,000 1,080 Climbing Cleveland Center
05:18PM 43.2083 -77.8917 260° West 337 388 25,000 900 Climbing Cleveland Center
05:19PM 43.1906 -78.0233 260° West 348 400 25,900 900 Climbing Cleveland Center
05:20PM 43.1706 -78.1578 259° West 353 406 26,900 960 Climbing Cleveland Center
05:21PM 43.1522 -78.2894 259° West 358 412 27,900 900 Climbing Cleveland Center
05:22PM 43.1403 -78.4208 263° West 358 412 28,800 540 Climbing Cleveland Center
05:23PM 43.1300 -78.5436 263° West 358 412 29,000 3,600 Climbing Cleveland Center
05:24PM 43.1156 -78.6778 262° West 358 412 36,000 3,480 Climbing Cleveland Center
05:25PM 43.1031 -78.8147 263° West 358 412 36,000 -3,480 Level Cleveland Center
05:25PM 43.1167 -78.9333 279° West 390 449 30,400 -2,880 Descending Toronto Center
05:26PM 43.1167 -79.0667 270° West 390 449 31,400 1,080 Climbing Toronto Center
05:27PM 43.1000 -79.2167 261° West 380 437 32,600 1,200 Climbing Toronto Center
05:28PM 43.1000 -79.3667 270° West 370 426 33,900 1,200 Climbing Toronto Center
05:29PM 43.1000 -79.5000 270° West 360 414 35,100 1,020 Climbing Toronto Center
05:30PM 43.1000 -79.6333 270° West 350 403 36,000 420 Climbing Toronto Center
05:31PM 43.0833 -79.7500 259° West 360 414 36,000  Level Toronto Center
05:32PM 43.0833 -79.9000 270° West 370 426 36,000  Level Toronto Center
05:33PM 43.0833 -80.0500 270° West 380 437 36,000  Level Toronto Center
05:34PM 43.0667 -80.2000 261° West 370 426 36,000  Level Toronto Center
05:35PM 43.0667 -80.3333 270° West 370 426 36,000  Level Toronto Center
05:36PM 43.0667 -80.4833 270° West 360 414 36,000  Level Toronto Center
05:37PM 43.0500 -80.6167 260° West 360 414 36,000  Level Toronto Center
05:38PM 43.0500 -80.7500 270° West 360 414 36,000  Level Toronto Center
05:39PM 43.0333 -80.8833 260° West 370 426 36,000  Level Toronto Center
05:40PM 43.0167 -81.0167 260° West 380 437 36,000  Level Toronto Center
05:41PM 43.0167 -81.1833 270° West 390 449 36,000  Level Toronto Center
05:42PM 43.0167 -81.3167 270° West 390 449 36,000  Level Toronto Center
05:43PM 43.0167 -81.4500 270° West 380 437 36,000  Level Toronto Center
05:44PM 43.0167 -81.6167 270° West 380 437 36,000  Level Toronto Center
05:45PM 43.0167 -81.7500 270° West 370 426 36,000  Level Toronto Center
05:46PM 43.0167 -81.8833 270° West 370 426 36,000  Level Toronto Center
05:47PM 43.0000 -82.0333 261° West 370 426 36,000  Level Toronto Center
05:48PM 43.0000 -82.1667 270° West 370 426 36,000  Level Toronto Center
05:49PM 43.0000 -82.3167 270° West 370 426 36,000  Level Toronto Center
05:50PM 43.0000 -82.4667 270° West 370 426 36,000 -420 Level Toronto Center
05:51PM 43.0000 -82.6000 270° West 370 426 35,200 -1,140 Descending Toronto Center
05:53PM 42.9981 -82.7633 269° West 377 434 33,600 -1,680 Descending Cleveland Center
05:54PM 42.9953 -82.9053 269° West 383 441 31,600 -1,560 Descending Cleveland Center
05:55PM 42.9903 -83.0469 267° West 383 441 30,500 -840 Descending Cleveland Center
05:56PM 42.9850 -83.1942 267° West 383 441 30,000 -300 Descending Cleveland Center
05:57PM 42.9817 -83.3417 268° West 383 441 30,000  Level Cleveland Center
05:58PM 42.9739 -83.4889 266° West 389 448 30,000  Level Cleveland Center
05:59PM 42.9672 -83.6589 267° West 400 460 30,000  Level Cleveland Center
06:00PM 42.9589 -83.8144 266° West 406 467 30,000  Level Cleveland Center
06:01PM 42.9442 -83.9614 262° West 406 467 30,000  Level Cleveland Center
06:02PM 42.9314 -84.1167 264° West 406 467 30,000  Level Cleveland Center
06:03PM 42.9175 -84.2469 262° West 408 470 30,000  Level Chicago Center
06:04PM 42.9019 -84.3981 262° West 404 465 30,000  Level Chicago Center
06:05PM 42.8878 -84.5500 263° West 405 466 30,000  Level Chicago Center
06:06PM 42.8714 -84.7017 262° West 405 466 30,000  Level Chicago Center
06:07PM 42.8553 -84.8539 262° West 406 467 30,000  Level Chicago Center
06:08PM 42.8392 -85.0039 262° West 403 464 30,000  Level Chicago Center
06:09PM 42.8300 -85.1883 266° West 408 470 30,000 -540 Level Chicago Center
06:10PM 42.8308 -85.3447 270° West 411 473 29,000 -1,140 Descending Chicago Center
06:11PM 42.8325 -85.4989 271° West 409 471 27,700 -1,260 Descending Chicago Center
06:12PM 42.8319 -85.6542 270° West 409 471 26,400 -1,260 Descending Chicago Center
06:13PM 42.8264 -85.8186 267° West 428 493 25,100 -1,260 Descending Chicago Center
06:14PM 42.8056 -85.9769 260° West 421 484 23,800 -1,260 Descending Chicago Center
06:15PM 42.7617 -86.1206 247° West 409 471 22,500 -1,260 Descending Chicago Center
06:16PM 42.7183 -86.2628 248° West 406 467 21,200 -1,200 Descending Chicago Center
06:17PM 42.6667 -86.4306 247° West 401 461 20,100 -600 Descending Chicago Center
06:18PM 42.6250 -86.5683 248° West 397 457 20,000 -60 Descending Chicago Center
06:19PM 42.5825 -86.6986 246° West 381 438 20,000  Level Chicago Center
06:20PM 42.5394 -86.8497 249° West 386 444 20,000 -1,500 Level Chicago Center
06:21PM 42.5231 -86.9839 261° West 382 440 16,900 -3,600 Descending Chicago Center
06:22PM 42.5697 -87.0978 299° West 378 435 12,600 -3,240 Descending Chicago Center
06:23PM 42.5558 -87.2258 262° West 310 357 10,300 -1,620 Descending Chicago Center
06:24PM 42.5047 -87.2933 224° Southwest 263 303 9,300 -720 Descending Chicago Center
06:25PM 42.4619 -87.3783 236° Southwest 271 312 8,900 -660 Descending Chicago Center
06:26PM 42.4025 -87.4503 222° Southwest 270 311 8,000 -960 Descending Chicago Center
06:27PM 42.3397 -87.5158 218° Southwest 260 299 7,000 -540 Descending Chicago Center
06:28PM 42.2900 -87.5694 219° Southwest 259 298 7,000 -180 Level Chicago Center
06:29PM 42.2353 -87.6344 221° Southwest 262 302 6,700 -1,020 Descending Chicago Center
06:30PM 42.1686 -87.7078 219° Southwest 260 299 4,900 -1,500 Descending Chicago Center
06:31PM 42.1158 -87.7661 219° Southwest 252 290 3,600 -1,260 Descending Chicago Center
06:33PM 42.0633 -87.8250 220° Southwest 250 288 2,400 -1,020 Descending Chicago Center
06:34PM 42.0297 -87.8611 219° Southwest 189 217 1,500 -960 Descending Chicago Center
06:34PM 42.0000 -87.9000 224° Southwest 157 181 800 -960 Descending Chicago TRACON
06:36PM 41.9817 -87.9067 206° Southwest  Level Estimated